createdAt,value
2023-09-18T00:00:02.840Z,18.6
2023-09-18T00:01:04.877Z,18.6
2023-09-18T00:02:06.846Z,18.6
2023-09-18T00:03:08.852Z,18.6
2023-09-18T00:04:10.847Z,18.6
2023-09-18T00:05:12.879Z,18.6
2023-09-18T00:06:14.841Z,18.6
2023-09-18T00:07:16.855Z,18.7
2023-09-18T00:08:18.817Z,18.7
2023-09-18T00:09:20.837Z,18.8
2023-09-18T00:10:22.808Z,18.8
2023-09-18T00:11:24.841Z,18.8
2023-09-18T00:12:26.799Z,18.9
2023-09-18T00:13:28.807Z,18.9
2023-09-18T00:14:30.839Z,18.9
2023-09-18T00:15:32.809Z,18.9
2023-09-18T00:16:41.149Z,18.9
2023-09-18T00:17:59.139Z,19
2023-09-18T00:19:01.150Z,18.9
2023-09-18T00:20:03.129Z,18.9
2023-09-18T00:21:05.123Z,19
2023-09-18T00:22:07.116Z,18.9
2023-09-18T00:23:09.180Z,18.9
2023-09-18T00:24:11.152Z,18.9
2023-09-18T00:25:13.113Z,18.9
2023-09-18T00:26:15.121Z,18.9
2023-09-18T00:27:17.113Z,18.9
2023-09-18T00:28:19.135Z,18.8
2023-09-18T00:29:21.148Z,18.8
2023-09-18T00:30:23.110Z,18.8
2023-09-18T00:31:25.111Z,18.8
2023-09-18T00:32:27.208Z,18.8
2023-09-18T00:33:29.152Z,18.9
2023-09-18T00:34:31.103Z,18.9
2023-09-18T00:35:33.224Z,18.9
2023-09-18T00:36:35.101Z,18.9
2023-09-18T00:37:37.132Z,18.9
2023-09-18T00:38:39.137Z,18.9
2023-09-18T00:39:41.099Z,19
2023-09-18T00:40:43.104Z,19
2023-09-18T00:41:45.121Z,19
2023-09-18T00:42:47.120Z,19
2023-09-18T00:43:49.095Z,19.1
2023-09-18T00:44:51.124Z,19.1
2023-09-18T00:45:53.101Z,19.1
2023-09-18T00:46:55.147Z,19.1
2023-09-18T00:47:57.109Z,19.1
2023-09-18T00:48:59.101Z,19.1
2023-09-18T00:50:01.110Z,19.1
2023-09-18T00:51:03.099Z,19.2
2023-09-18T00:52:05.114Z,19.2
2023-09-18T00:53:07.090Z,19.2
2023-09-18T00:54:09.147Z,19.2
2023-09-18T00:55:11.082Z,19.2
2023-09-18T00:56:13.163Z,19.3
2023-09-18T00:57:15.078Z,19.3
2023-09-18T00:58:17.078Z,19.3
2023-09-18T00:59:19.121Z,19.4
2023-09-18T01:00:21.089Z,19.4
2023-09-18T01:01:23.129Z,19.5
2023-09-18T01:02:25.208Z,19.5
2023-09-18T01:03:27.312Z,19.4
2023-09-18T01:04:29.074Z,19.4
2023-09-18T01:05:31.150Z,19.4
2023-09-18T01:06:33.109Z,19.4
2023-09-18T01:07:35.070Z,19.4
2023-09-18T01:08:37.236Z,19.4
2023-09-18T01:09:39.107Z,19.4
2023-09-18T01:10:41.092Z,19.4
2023-09-18T01:11:43.073Z,19.4
2023-09-18T01:12:45.061Z,19.4
2023-09-18T01:13:47.074Z,19.5
2023-09-18T01:14:49.083Z,19.4
2023-09-18T01:15:51.096Z,19.5
2023-09-18T01:16:53.068Z,19.5
2023-09-18T01:17:55.129Z,19.5
2023-09-18T01:18:57.065Z,19.4
2023-09-18T01:19:59.094Z,19.4
2023-09-18T01:21:01.052Z,19.4
2023-09-18T01:22:03.048Z,19.4
2023-09-18T01:23:05.117Z,19.4
2023-09-18T01:24:07.042Z,19.4
2023-09-18T01:25:09.124Z,19.4
2023-09-18T01:26:13.799Z,19.4
2023-09-18T01:27:14.358Z,19.4
2023-09-18T01:28:16.358Z,19.4
2023-09-18T01:29:18.410Z,19.4
2023-09-18T01:30:20.355Z,19.4
2023-09-18T01:31:22.359Z,19.3
2023-09-18T01:32:24.386Z,19.3
2023-09-18T01:33:26.352Z,19.3
2023-09-18T01:34:28.376Z,19.3
2023-09-18T01:35:30.360Z,19.3
2023-09-18T01:36:32.352Z,19.3
2023-09-18T01:37:34.348Z,19.3
2023-09-18T01:38:36.435Z,19.3
2023-09-18T01:39:38.387Z,19.3
2023-09-18T01:40:40.385Z,19.3
2023-09-18T01:41:42.351Z,19.3
2023-09-18T01:42:44.341Z,19.3
2023-09-18T01:43:46.369Z,19.3
2023-09-18T01:44:48.342Z,19.3
2023-09-18T01:45:50.335Z,19.3
2023-09-18T01:46:52.362Z,19.3
2023-09-18T01:47:54.368Z,19.2
2023-09-18T01:48:56.364Z,19.2
2023-09-18T01:49:58.343Z,19.2
2023-09-18T01:51:00.335Z,19.2
2023-09-18T01:52:02.375Z,19.1
2023-09-18T01:53:04.371Z,19.1
2023-09-18T01:54:06.328Z,19
2023-09-18T01:55:08.330Z,19
2023-09-18T01:56:10.397Z,19
2023-09-18T01:57:12.349Z,19
2023-09-18T01:58:14.349Z,19
2023-09-18T01:59:16.361Z,19
2023-09-18T02:00:18.319Z,19
2023-09-18T02:01:20.322Z,19
2023-09-18T02:02:24.210Z,19
2023-09-18T02:04:01.959Z,19
2023-09-18T02:05:50.950Z,19.1
2023-09-18T02:06:52.991Z,19.1
2023-09-18T02:07:54.882Z,19.1
2023-09-18T02:08:57.170Z,19.1
2023-09-18T02:09:58.880Z,19.1
2023-09-18T02:11:00.884Z,19.1
2023-09-18T02:12:02.963Z,19.1
2023-09-18T02:13:04.864Z,19.1
2023-09-18T02:14:06.903Z,19.1
2023-09-18T02:15:08.862Z,19.1
2023-09-18T02:16:10.950Z,19.1
2023-09-18T02:17:12.940Z,19.1
2023-09-18T02:18:14.893Z,19.1
2023-09-18T02:19:16.869Z,19.1
2023-09-18T02:20:18.891Z,19.2
2023-09-18T02:21:20.883Z,19.2
2023-09-18T02:22:22.852Z,19.2
2023-09-18T02:23:24.891Z,19.2
2023-09-18T02:24:26.866Z,19.3
2023-09-18T02:25:28.875Z,19.3
2023-09-18T02:26:30.903Z,19.3
2023-09-18T02:27:32.884Z,19.3
2023-09-18T02:28:34.855Z,19.3
2023-09-18T02:29:36.863Z,19.3
2023-09-18T02:30:38.872Z,19.3
2023-09-18T02:31:40.900Z,19.3
2023-09-18T02:32:42.952Z,19.4
2023-09-18T02:33:44.879Z,19.4
2023-09-18T02:34:46.890Z,19.4
2023-09-18T02:35:48.922Z,19.5
2023-09-18T02:36:50.852Z,19.5
2023-09-18T02:37:52.830Z,19.5
2023-09-18T02:38:54.939Z,19.5
2023-09-18T02:39:56.859Z,19.5
2023-09-18T02:40:58.852Z,19.5
2023-09-18T02:42:00.829Z,19.6
2023-09-18T02:43:02.877Z,19.6
2023-09-18T02:44:04.868Z,19.6
2023-09-18T02:45:06.854Z,19.7
2023-09-18T02:46:08.844Z,19.7
2023-09-18T02:47:10.861Z,19.7
2023-09-18T02:48:12.866Z,19.7
2023-09-18T02:49:14.850Z,19.7
2023-09-18T02:50:16.909Z,19.7
2023-09-18T02:51:18.828Z,19.7
2023-09-18T02:52:20.843Z,19.8
2023-09-18T02:53:22.873Z,19.9
2023-09-18T02:54:24.845Z,19.9
2023-09-18T02:55:26.815Z,19.9
2023-09-18T02:56:28.832Z,19.9
2023-09-18T02:57:30.817Z,20
2023-09-18T02:58:32.883Z,20
2023-09-18T02:59:34.840Z,20
2023-09-18T03:00:43.533Z,20
2023-09-18T03:01:44.618Z,20
2023-09-18T03:02:46.647Z,20
2023-09-18T03:03:48.657Z,20
2023-09-18T03:04:50.558Z,20
2023-09-18T03:05:52.551Z,20
2023-09-18T03:06:54.550Z,20
2023-09-18T03:07:56.585Z,19.9
2023-09-18T03:08:58.546Z,19.9
2023-09-18T03:10:00.573Z,19.9
2023-09-18T03:11:02.580Z,19.8
2023-09-18T03:12:04.558Z,19.8
2023-09-18T03:13:06.580Z,19.8
2023-09-18T03:14:08.649Z,19.8
2023-09-18T03:15:10.754Z,19.7
2023-09-18T03:16:12.562Z,19.7
2023-09-18T03:17:14.575Z,19.7
2023-09-18T03:18:16.571Z,19.7
2023-09-18T03:19:18.535Z,19.7
2023-09-18T03:20:20.573Z,19.7
2023-09-18T03:21:22.540Z,19.7
2023-09-18T03:22:24.571Z,19.6
2023-09-18T03:23:26.693Z,19.6
2023-09-18T03:24:28.529Z,19.6
2023-09-18T03:25:30.528Z,19.5
2023-09-18T03:26:52.608Z,19.5
2023-09-18T03:27:54.579Z,19.5
2023-09-18T03:28:56.575Z,19.5
2023-09-18T03:29:58.608Z,19.5
2023-09-18T03:31:00.609Z,19.5
2023-09-18T03:32:02.623Z,19.5
2023-09-18T03:33:04.601Z,19.5
2023-09-18T03:34:06.571Z,19.4
2023-09-18T03:35:08.596Z,19.4
2023-09-18T03:36:10.591Z,19.4
2023-09-18T03:37:12.796Z,19.4
2023-09-18T03:38:14.591Z,19.3
2023-09-18T03:39:16.558Z,19.3
2023-09-18T03:40:18.562Z,19.3
2023-09-18T03:41:20.669Z,19.3
2023-09-18T03:42:22.557Z,19.3
2023-09-18T03:43:24.558Z,19.3
2023-09-18T03:44:26.599Z,19.3
2023-09-18T03:45:28.617Z,19.2
2023-09-18T03:46:30.599Z,19.2
2023-09-18T03:47:32.593Z,19.2
2023-09-18T03:48:34.554Z,19.2
2023-09-18T03:49:36.548Z,19.1
2023-09-18T03:50:38.617Z,19.1
2023-09-18T03:51:50.592Z,19.1
2023-09-18T03:52:52.576Z,19.1
2023-09-18T03:53:54.583Z,19.1
2023-09-18T03:55:04.734Z,19.1
2023-09-18T03:56:06.724Z,19.1
2023-09-18T03:57:08.696Z,19.1
2023-09-18T03:58:10.695Z,19
2023-09-18T03:59:12.756Z,19
2023-09-18T04:00:14.727Z,19
2023-09-18T04:01:16.775Z,19
2023-09-18T04:02:18.737Z,19
2023-09-18T04:03:20.742Z,18.9
2023-09-18T04:04:22.774Z,18.9
2023-09-18T04:05:24.716Z,18.8
2023-09-18T04:06:26.688Z,18.8
2023-09-18T04:07:28.683Z,18.8
2023-09-18T04:08:30.732Z,18.8
2023-09-18T04:09:32.711Z,18.8
2023-09-18T04:10:34.688Z,18.8
2023-09-18T04:11:36.710Z,18.8
2023-09-18T04:12:38.681Z,18.8
2023-09-18T04:13:40.708Z,18.8
2023-09-18T04:14:42.732Z,18.7
2023-09-18T04:15:44.725Z,18.7
2023-09-18T04:16:46.715Z,18.7
2023-09-18T04:17:48.830Z,18.7
2023-09-18T04:18:51.091Z,18.7
2023-09-18T04:19:52.806Z,18.7
2023-09-18T04:20:54.702Z,18.7
2023-09-18T04:21:56.682Z,18.7
2023-09-18T04:22:58.699Z,18.7
2023-09-18T04:24:00.675Z,18.6
2023-09-18T04:25:02.671Z,18.6
2023-09-18T04:26:04.704Z,18.6
2023-09-18T04:27:06.689Z,18.6
2023-09-18T04:28:08.692Z,18.6
2023-09-18T04:29:10.690Z,18.6
2023-09-18T04:30:12.667Z,18.5
2023-09-18T04:31:14.661Z,18.5
2023-09-18T04:32:16.779Z,18.5
2023-09-18T04:33:18.767Z,18.5
2023-09-18T04:34:20.676Z,18.5
2023-09-18T04:35:22.698Z,18.5
2023-09-18T04:36:24.689Z,18.5
2023-09-18T04:37:26.687Z,18.5
2023-09-18T04:38:28.663Z,18.4
2023-09-18T04:39:30.656Z,18.4
2023-09-18T04:40:32.659Z,18.4
2023-09-18T04:41:34.711Z,18.4
2023-09-18T04:42:36.647Z,18.3
2023-09-18T04:43:38.663Z,18.3
2023-09-18T04:44:40.657Z,18.3
2023-09-18T04:45:42.691Z,18.2
2023-09-18T04:46:44.693Z,18.2
2023-09-18T04:47:46.719Z,18.2
2023-09-18T04:48:48.650Z,18.2
2023-09-18T04:49:50.645Z,18.2
2023-09-18T04:50:52.752Z,18.1
2023-09-18T04:51:54.637Z,18.1
2023-09-18T04:52:56.638Z,18.1
2023-09-18T04:53:58.633Z,18.1
2023-09-18T04:55:00.629Z,18
2023-09-18T04:56:02.708Z,18
2023-09-18T04:57:04.628Z,18
2023-09-18T04:58:06.636Z,18
2023-09-18T04:59:08.690Z,18
2023-09-18T05:00:17.535Z,18
2023-09-18T05:01:18.905Z,17.9
2023-09-18T05:02:20.892Z,17.9
2023-09-18T05:03:22.993Z,17.9
2023-09-18T05:04:24.844Z,17.8
2023-09-18T05:05:26.931Z,17.8
2023-09-18T05:06:28.923Z,17.8
2023-09-18T05:07:30.842Z,17.8
2023-09-18T05:08:32.865Z,17.8
2023-09-18T05:09:34.862Z,17.8
2023-09-18T05:10:36.865Z,17.8
2023-09-18T05:11:38.837Z,17.8
2023-09-18T05:12:40.830Z,17.8
2023-09-18T05:13:42.831Z,17.8
2023-09-18T05:14:44.876Z,17.8
2023-09-18T05:15:46.828Z,17.8
2023-09-18T05:16:48.880Z,17.7
2023-09-18T05:17:50.852Z,17.7
2023-09-18T05:18:53.198Z,17.7
2023-09-18T05:19:54.824Z,17.7
2023-09-18T05:20:56.825Z,17.7
2023-09-18T05:21:58.821Z,17.7
2023-09-18T05:23:00.829Z,17.7
2023-09-18T05:24:02.849Z,17.7
2023-09-18T05:25:04.820Z,17.7
2023-09-18T05:26:06.824Z,17.6
2023-09-18T05:27:08.835Z,17.6
2023-09-18T05:28:10.842Z,17.7
2023-09-18T05:29:12.846Z,17.7
2023-09-18T05:30:14.809Z,17.7
2023-09-18T05:31:16.881Z,17.6
2023-09-18T05:32:18.829Z,17.7
2023-09-18T05:33:21.153Z,17.7
2023-09-18T05:34:22.846Z,17.7
2023-09-18T05:35:25.022Z,17.7
2023-09-18T05:36:28.410Z,17.7
2023-09-18T05:37:31.081Z,17.7
2023-09-18T05:38:33.097Z,17.7
2023-09-18T05:39:35.597Z,17.7
2023-09-18T05:40:37.187Z,17.7
2023-09-18T05:41:39.421Z,17.7
2023-09-18T05:42:42.488Z,17.7
2023-09-18T05:43:43.209Z,17.6
2023-09-18T05:44:45.058Z,17.6
2023-09-18T05:45:47.044Z,17.6
2023-09-18T05:46:49.118Z,17.6
2023-09-18T05:47:51.543Z,17.6
2023-09-18T05:48:53.201Z,17.6
2023-09-18T05:49:55.097Z,17.6
2023-09-18T05:50:57.045Z,17.6
2023-09-18T05:51:59.074Z,17.6
2023-09-18T05:53:01.039Z,17.6
2023-09-18T05:54:03.037Z,17.6
2023-09-18T05:55:05.925Z,17.7
2023-09-18T05:56:07.073Z,17.6
2023-09-18T05:57:09.059Z,17.7
2023-09-18T05:58:11.028Z,17.7
2023-09-18T05:59:13.051Z,17.7
2023-09-18T06:00:15.061Z,17.7
2023-09-18T06:01:17.259Z,17.7
2023-09-18T06:02:19.045Z,17.7
2023-09-18T06:03:21.129Z,17.7
2023-09-18T06:04:23.042Z,17.7
2023-09-18T06:05:25.098Z,17.6
2023-09-18T06:06:27.046Z,17.6
2023-09-18T06:07:29.020Z,17.6
2023-09-18T06:08:31.041Z,17.6
2023-09-18T06:09:33.017Z,17.6
2023-09-18T06:10:35.041Z,17.6
2023-09-18T06:11:37.059Z,17.6
2023-09-18T06:12:39.013Z,17.6
2023-09-18T06:13:41.009Z,17.6
2023-09-18T06:14:43.046Z,17.6
2023-09-18T06:15:45.036Z,17.6
2023-09-18T06:16:47.026Z,17.6
2023-09-18T06:17:49.051Z,17.6
2023-09-18T06:18:51.173Z,17.6
2023-09-18T06:19:53.054Z,17.6
2023-09-18T06:20:55.051Z,17.6
2023-09-18T06:21:57.009Z,17.6
2023-09-18T06:22:58.996Z,17.6
2023-09-18T06:24:01.109Z,17.6
2023-09-18T06:25:03.139Z,17.6
2023-09-18T06:26:05.222Z,17.6
2023-09-18T06:27:07.061Z,17.6
2023-09-18T06:28:11.444Z,17.6
2023-09-18T06:29:13.477Z,17.6
2023-09-18T06:30:15.455Z,17.6
2023-09-18T06:31:17.457Z,17.6
2023-09-18T06:32:19.486Z,17.6
2023-09-18T06:33:21.507Z,17.6
2023-09-18T06:34:23.520Z,17.6
2023-09-18T06:35:25.455Z,17.6
2023-09-18T06:36:27.477Z,17.6
2023-09-18T06:37:29.440Z,17.6
2023-09-18T06:38:31.489Z,17.6
2023-09-18T06:39:33.440Z,17.6
2023-09-18T06:40:35.435Z,17.6
2023-09-18T06:41:37.452Z,17.6
2023-09-18T06:42:43.485Z,17.6
2023-09-18T06:43:45.515Z,17.6
2023-09-18T06:44:47.506Z,17.6
2023-09-18T06:45:49.720Z,17.6
2023-09-18T06:46:51.750Z,17.6
2023-09-18T06:47:53.787Z,17.6
2023-09-18T06:48:55.821Z,17.6
2023-09-18T06:49:57.795Z,17.6
2023-09-18T06:50:59.712Z,17.6
2023-09-18T06:52:02.339Z,17.6
2023-09-18T06:53:07.123Z,17.6
2023-09-18T06:54:09.154Z,17.6
2023-09-18T06:55:11.228Z,17.6
2023-09-18T06:56:13.041Z,17.6
2023-09-18T06:57:15.217Z,17.6
2023-09-18T06:58:17.172Z,17.6
2023-09-18T06:59:19.244Z,17.7
2023-09-18T07:00:21.004Z,17.6
2023-09-18T07:01:23.066Z,17.6
2023-09-18T07:02:25.981Z,17.7
2023-09-18T07:03:27.143Z,17.7
2023-09-18T07:04:30.114Z,17.7
2023-09-18T07:05:32.052Z,17.7
2023-09-18T07:06:34.530Z,17.7
2023-09-18T07:07:36.034Z,17.7
2023-09-18T07:08:38.163Z,17.7
2023-09-18T07:09:47.512Z,17.7
2023-09-18T07:11:02.819Z,17.7
2023-09-18T07:12:04.643Z,17.7
2023-09-18T07:13:06.600Z,17.7
2023-09-18T07:14:08.590Z,17.7
2023-09-18T07:15:10.586Z,17.7
2023-09-18T07:16:12.624Z,17.7
2023-09-18T07:17:14.599Z,17.8
2023-09-18T07:18:16.594Z,17.7
2023-09-18T07:19:18.654Z,17.7
2023-09-18T07:20:20.652Z,17.7
2023-09-18T07:21:22.606Z,17.7
2023-09-18T07:22:24.575Z,17.8
2023-09-18T07:23:26.633Z,17.8
2023-09-18T07:24:28.589Z,17.8
2023-09-18T07:25:30.611Z,17.8
2023-09-18T07:26:32.624Z,17.8
2023-09-18T07:27:34.885Z,17.8
2023-09-18T07:28:36.702Z,17.8
2023-09-18T07:29:38.628Z,17.8
2023-09-18T07:30:40.639Z,17.8
2023-09-18T07:31:42.932Z,17.8
2023-09-18T07:32:44.635Z,17.8
2023-09-18T07:33:46.806Z,17.8
2023-09-18T07:34:49.604Z,17.8
2023-09-18T07:35:51.459Z,17.8
2023-09-18T07:36:53.423Z,17.8
2023-09-18T07:37:55.323Z,17.8
2023-09-18T07:38:57.433Z,17.8
2023-09-18T07:39:59.443Z,17.8
2023-09-18T07:41:01.153Z,17.8
2023-09-18T07:42:03.134Z,17.8
2023-09-18T07:43:05.135Z,17.8
2023-09-18T07:44:07.164Z,17.8
2023-09-18T07:45:09.133Z,17.8
2023-09-18T07:46:11.192Z,17.8
2023-09-18T07:47:13.139Z,17.8
2023-09-18T07:48:15.174Z,17.8
2023-09-18T07:49:17.163Z,17.8
2023-09-18T07:50:19.911Z,17.8
2023-09-18T07:51:21.125Z,17.8
2023-09-18T07:52:23.196Z,17.8
2023-09-18T07:53:25.170Z,17.8
2023-09-18T07:54:27.225Z,17.8
2023-09-18T07:55:29.119Z,17.8
2023-09-18T07:56:31.137Z,17.8
2023-09-18T07:57:33.171Z,17.8
2023-09-18T07:58:35.161Z,17.8
2023-09-18T07:59:37.126Z,17.8
2023-09-18T08:00:39.118Z,17.8
2023-09-18T08:01:41.130Z,17.8
2023-09-18T08:02:43.540Z,17.8
2023-09-18T08:03:45.191Z,17.8
2023-09-18T08:04:47.116Z,17.7
2023-09-18T08:05:49.118Z,17.7
2023-09-18T08:06:51.134Z,17.7
2023-09-18T08:07:53.131Z,17.8
2023-09-18T08:08:55.415Z,17.8
2023-09-18T08:09:57.157Z,17.7
2023-09-18T08:10:59.834Z,17.7
2023-09-18T08:12:04.286Z,17.8
2023-09-18T08:13:06.255Z,17.7
2023-09-18T08:14:08.268Z,17.8
2023-09-18T08:15:10.255Z,17.8
2023-09-18T08:16:12.336Z,17.8
2023-09-18T08:17:14.273Z,17.8
2023-09-18T08:18:16.348Z,17.9
2023-09-18T08:19:18.373Z,18
2023-09-18T08:20:20.318Z,18
2023-09-18T08:21:22.283Z,18.1
2023-09-18T08:22:24.244Z,18.1
2023-09-18T08:23:26.312Z,18.1
2023-09-18T08:24:28.244Z,18.2
2023-09-18T08:25:30.894Z,18.2
2023-09-18T08:26:32.266Z,18.2
2023-09-18T08:27:34.242Z,18.3
2023-09-18T08:28:36.240Z,18.3
2023-09-18T08:29:38.291Z,18.3
2023-09-18T08:30:40.531Z,18.3
2023-09-18T08:31:42.253Z,18.3
2023-09-18T08:32:44.495Z,18.3
2023-09-18T08:33:46.232Z,18.3
2023-09-18T08:34:48.257Z,18.2
2023-09-18T08:35:50.286Z,18.2
2023-09-18T08:36:52.228Z,18.2
2023-09-18T08:37:54.232Z,18.2
2023-09-18T08:38:56.344Z,18.2
2023-09-18T08:39:58.259Z,18.2
2023-09-18T08:41:00.277Z,18.2
2023-09-18T08:42:02.235Z,18.1
2023-09-18T08:43:04.228Z,18.2
2023-09-18T08:44:06.252Z,18.1
2023-09-18T08:45:08.228Z,18.2
2023-09-18T08:46:10.262Z,18.1
2023-09-18T08:47:12.250Z,18.1
2023-09-18T08:48:14.302Z,18.1
2023-09-18T08:49:16.247Z,18.1
2023-09-18T08:50:18.258Z,18.1
2023-09-18T08:51:20.219Z,18.1
2023-09-18T08:52:22.217Z,18.1
2023-09-18T08:53:24.287Z,18.1
2023-09-18T08:54:26.208Z,18.2
2023-09-18T08:55:28.224Z,18.2
2023-09-18T08:56:30.251Z,18.2
2023-09-18T08:57:32.213Z,18.1
2023-09-18T08:58:34.228Z,18.1
2023-09-18T08:59:36.217Z,18.2
2023-09-18T09:00:38.208Z,18.2
2023-09-18T09:01:40.212Z,18.2
2023-09-18T09:02:42.278Z,18.2
2023-09-18T09:03:44.390Z,18.2
2023-09-18T09:04:46.224Z,18.2
2023-09-18T09:05:48.209Z,18.2
2023-09-18T09:06:50.223Z,18.2
2023-09-18T09:07:52.250Z,18.3
2023-09-18T09:08:54.317Z,18.3
2023-09-18T09:09:56.195Z,18.4
2023-09-18T09:10:58.212Z,18.4
2023-09-18T09:12:00.491Z,18.5
2023-09-18T09:13:02.190Z,18.5
2023-09-18T09:14:04.325Z,18.6
2023-09-18T09:15:06.267Z,18.6
2023-09-18T09:16:08.224Z,18.7
2023-09-18T09:17:10.209Z,18.7
2023-09-18T09:18:12.221Z,18.8
2023-09-18T09:19:14.184Z,18.8
2023-09-18T09:20:16.244Z,18.8
2023-09-18T09:21:18.238Z,18.8
2023-09-18T09:22:20.173Z,18.7
2023-09-18T09:23:22.194Z,18.7
2023-09-18T09:24:24.170Z,18.8
2023-09-18T09:25:26.547Z,18.8
2023-09-18T09:26:28.219Z,18.8
2023-09-18T09:27:30.242Z,18.8
2023-09-18T09:28:32.165Z,18.9
2023-09-18T09:29:34.187Z,18.9
2023-09-18T09:30:36.192Z,19
2023-09-18T09:31:38.228Z,19
2023-09-18T09:32:40.249Z,18.9
2023-09-18T09:33:42.171Z,18.9
2023-09-18T09:34:44.193Z,18.9
2023-09-18T09:35:46.227Z,18.9
2023-09-18T09:36:48.159Z,18.9
2023-09-18T09:37:50.156Z,18.8
2023-09-18T09:38:52.400Z,18.8
2023-09-18T09:39:54.201Z,18.8
2023-09-18T09:40:56.151Z,18.8
2023-09-18T09:41:58.198Z,18.8
2023-09-18T09:43:01.530Z,18.9
2023-09-18T09:44:02.487Z,18.9
2023-09-18T09:45:04.527Z,18.9
2023-09-18T09:46:06.459Z,18.9
2023-09-18T09:47:08.466Z,18.9
2023-09-18T09:48:10.551Z,18.9
2023-09-18T09:49:12.495Z,18.9
2023-09-18T09:50:14.716Z,18.9
2023-09-18T09:51:16.459Z,18.9
2023-09-18T09:52:18.610Z,19
2023-09-18T09:53:20.820Z,19
2023-09-18T09:54:22.476Z,19
2023-09-18T09:55:24.462Z,18.9
2023-09-18T09:56:26.536Z,18.9
2023-09-18T09:57:28.444Z,18.9
2023-09-18T09:58:30.568Z,18.9
2023-09-18T09:59:32.457Z,18.9
2023-09-18T10:00:34.498Z,18.9
2023-09-18T10:01:36.438Z,18.8
2023-09-18T10:02:38.611Z,18.8
2023-09-18T10:03:40.588Z,18.9
2023-09-18T10:04:42.435Z,18.9
2023-09-18T10:05:44.450Z,18.9
2023-09-18T10:06:46.503Z,18.9
2023-09-18T10:07:48.462Z,18.9
2023-09-18T10:08:50.440Z,18.9
2023-09-18T10:09:52.432Z,18.9
2023-09-18T10:10:54.429Z,18.9
2023-09-18T10:11:56.454Z,18.9
2023-09-18T10:12:58.460Z,18.9
2023-09-18T10:14:00.446Z,18.9
2023-09-18T10:15:03.091Z,18.9
2023-09-18T10:16:04.430Z,18.9
2023-09-18T10:17:06.446Z,18.8
2023-09-18T10:18:08.504Z,18.8
2023-09-18T10:19:10.414Z,18.9
2023-09-18T10:20:12.445Z,18.9
2023-09-18T10:21:14.439Z,18.9
2023-09-18T10:22:16.437Z,19
2023-09-18T10:23:18.426Z,19.1
2023-09-18T10:24:20.416Z,19.1
2023-09-18T10:25:22.417Z,19.2
2023-09-18T10:26:24.524Z,19.2
2023-09-18T10:27:26.408Z,19.2
2023-09-18T10:28:28.406Z,19.2
2023-09-18T10:29:30.451Z,19.2
2023-09-18T10:30:32.432Z,19.2
2023-09-18T10:31:34.435Z,19.3
2023-09-18T10:32:36.463Z,19.3
2023-09-18T10:33:38.406Z,19.4
2023-09-18T10:34:43.124Z,19.4
2023-09-18T10:35:43.482Z,19.5
2023-09-18T10:36:45.472Z,19.7
2023-09-18T10:37:47.438Z,19.8
2023-09-18T10:38:49.446Z,19.9
2023-09-18T10:39:51.445Z,19.9
2023-09-18T10:40:53.461Z,19.9
2023-09-18T10:41:55.483Z,19.9
2023-09-18T10:42:57.442Z,20
2023-09-18T10:43:59.440Z,20.1
2023-09-18T10:45:01.494Z,20.2
2023-09-18T10:46:03.438Z,20.1
2023-09-18T10:47:05.433Z,20.1
2023-09-18T10:48:07.512Z,20
2023-09-18T10:49:09.426Z,20
2023-09-18T10:50:11.450Z,20
2023-09-18T10:51:13.422Z,20
2023-09-18T10:52:15.433Z,20.1
2023-09-18T10:53:17.440Z,20.3
2023-09-18T10:54:19.443Z,20.4
2023-09-18T10:55:21.420Z,20.5
2023-09-18T10:56:23.423Z,20.5
2023-09-18T10:57:25.415Z,20.5
2023-09-18T10:58:27.413Z,20.5
2023-09-18T11:00:31.752Z,20.3
2023-09-18T11:01:33.426Z,20.1
2023-09-18T11:02:36.641Z,20
2023-09-18T11:03:38.859Z,20
2023-09-18T11:04:40.152Z,20
2023-09-18T11:05:42.406Z,20
2023-09-18T11:06:44.197Z,20
2023-09-18T11:07:46.701Z,19.9
2023-09-18T11:08:48.558Z,19.8
2023-09-18T11:09:50.455Z,19.7
2023-09-18T11:10:52.279Z,19.7
2023-09-18T11:11:54.458Z,19.7
2023-09-18T11:12:56.257Z,19.6
2023-09-18T11:13:58.221Z,19.5
2023-09-18T11:15:00.384Z,19.5
2023-09-18T11:16:02.273Z,19.5
2023-09-18T11:17:04.258Z,19.5
2023-09-18T11:18:08.999Z,19.4
2023-09-18T11:19:10.313Z,19.5
2023-09-18T11:20:12.280Z,19.5
2023-09-18T11:21:14.279Z,19.5
2023-09-18T11:22:16.311Z,19.5
2023-09-18T11:23:18.376Z,19.5
2023-09-18T11:24:20.548Z,19.6
2023-09-18T11:25:22.276Z,19.7
2023-09-18T11:26:24.331Z,19.9
2023-09-18T11:27:26.322Z,20
2023-09-18T11:28:28.269Z,20.3
2023-09-18T11:29:30.276Z,20.5
2023-09-18T11:30:32.374Z,20.7
2023-09-18T11:31:34.335Z,20.9
2023-09-18T11:32:36.332Z,21.1
2023-09-18T11:33:38.404Z,21.1
2023-09-18T11:34:40.335Z,21.1
2023-09-18T11:35:42.450Z,21.1
2023-09-18T11:36:44.324Z,21
2023-09-18T11:37:46.255Z,20.9
2023-09-18T11:38:48.410Z,20.8
2023-09-18T11:39:50.253Z,20.7
2023-09-18T11:40:52.287Z,20.7
2023-09-18T11:41:54.272Z,20.6
2023-09-18T11:42:56.254Z,20.5
2023-09-18T11:43:58.247Z,20.5
2023-09-18T11:45:00.442Z,20.3
2023-09-18T11:46:02.741Z,20.3
2023-09-18T11:47:04.669Z,20.3
2023-09-18T11:48:06.312Z,20.3
2023-09-18T11:49:08.281Z,20.3
2023-09-18T11:50:10.438Z,20.3
2023-09-18T11:51:12.531Z,20.3
2023-09-18T11:52:14.287Z,20.5
2023-09-18T11:53:16.650Z,20.5
2023-09-18T11:54:20.670Z,20.6
2023-09-18T11:55:21.692Z,20.7
2023-09-18T11:56:23.450Z,20.8
2023-09-18T11:57:25.314Z,20.9
2023-09-18T11:58:27.350Z,20.8
2023-09-18T11:59:29.361Z,20.8
2023-09-18T12:00:31.345Z,20.8
2023-09-18T12:01:33.320Z,20.8
2023-09-18T12:02:35.356Z,20.8
2023-09-18T12:03:37.353Z,20.8
2023-09-18T12:04:39.347Z,20.8
2023-09-18T12:05:41.362Z,20.8
2023-09-18T12:06:43.324Z,20.8
2023-09-18T12:07:45.299Z,20.8
2023-09-18T12:08:47.342Z,20.7
2023-09-18T12:09:49.296Z,20.7
2023-09-18T12:10:51.297Z,20.7
2023-09-18T12:11:53.396Z,20.7
2023-09-18T12:12:55.291Z,20.8
2023-09-18T12:13:57.320Z,20.8
2023-09-18T12:14:59.400Z,20.9
2023-09-18T12:16:01.354Z,20.8
2023-09-18T12:17:03.438Z,20.8
2023-09-18T12:18:05.429Z,20.8
2023-09-18T12:19:07.321Z,20.9
2023-09-18T12:20:09.288Z,21
2023-09-18T12:21:11.281Z,21
2023-09-18T12:22:13.287Z,21.1
2023-09-18T12:23:15.596Z,21.3
2023-09-18T12:24:17.287Z,21.4
2023-09-18T12:25:19.286Z,21.5
2023-09-18T12:26:21.544Z,21.6
2023-09-18T12:27:23.754Z,21.7
2023-09-18T12:28:26.806Z,21.8
2023-09-18T12:29:28.477Z,21.8
2023-09-18T12:30:30.465Z,21.8
2023-09-18T12:31:32.677Z,21.9
2023-09-18T12:32:34.858Z,21.9
2023-09-18T12:33:36.732Z,21.8
2023-09-18T12:34:38.634Z,21.7
2023-09-18T12:35:40.496Z,21.6
2023-09-18T12:36:42.488Z,21.4
2023-09-18T12:37:44.491Z,21.3
2023-09-18T12:38:46.477Z,21.1
2023-09-18T12:39:48.789Z,21.1
2023-09-18T12:40:50.580Z,21.1
2023-09-18T12:41:52.517Z,21.1
2023-09-18T12:42:54.544Z,21.2
2023-09-18T12:43:59.163Z,21.3
2023-09-18T12:44:59.555Z,21.3
2023-09-18T12:46:01.758Z,21.2
2023-09-18T12:47:03.575Z,21.2
2023-09-18T12:48:06.007Z,21.1
2023-09-18T12:49:07.570Z,21.2
2023-09-18T12:50:09.561Z,21.3
2023-09-18T12:51:11.915Z,21.4
2023-09-18T12:52:15.592Z,21.5
2023-09-18T12:53:17.608Z,21.7
2023-09-18T12:54:19.575Z,21.9
2023-09-18T12:55:24.585Z,22.1
2023-09-18T12:56:25.600Z,22.3
2023-09-18T12:57:27.381Z,22.6
2023-09-18T12:58:29.434Z,22.8
2023-09-18T12:59:31.351Z,23.1
2023-09-18T13:00:33.257Z,23.3
2023-09-18T13:01:35.592Z,23.5
2023-09-18T13:02:37.678Z,23.5
2023-09-18T13:03:40.636Z,23.6
2023-09-18T13:04:42.835Z,23.5
2023-09-18T13:05:44.591Z,23.3
2023-09-18T13:06:46.534Z,23
2023-09-18T13:07:48.431Z,22.9
2023-09-18T13:08:50.295Z,22.7
2023-09-18T13:09:53.614Z,22.6
2023-09-18T13:10:54.439Z,22.6
2023-09-18T13:11:56.490Z,22.5
2023-09-18T13:12:58.314Z,22.5
2023-09-18T13:14:00.337Z,22.3
2023-09-18T13:15:02.313Z,22
2023-09-18T13:16:04.343Z,21.9
2023-09-18T13:17:06.308Z,21.7
2023-09-18T13:18:08.353Z,21.5
2023-09-18T13:19:11.367Z,21.5
2023-09-18T13:20:12.334Z,21.5
2023-09-18T13:21:14.310Z,21.5
2023-09-18T13:22:16.587Z,21.5
2023-09-18T13:23:21.525Z,21.4
2023-09-18T13:24:23.944Z,21.4
2023-09-18T13:25:25.874Z,21.4
2023-09-18T13:26:27.868Z,21.4
2023-09-18T13:27:30.187Z,21.4
2023-09-18T13:28:36.901Z,21.4
2023-09-18T13:29:38.504Z,21.4
2023-09-18T13:30:40.907Z,21.4
2023-09-18T13:31:42.503Z,21.4
2023-09-18T13:32:45.014Z,21.4
2023-09-18T13:33:46.808Z,21.4
2023-09-18T13:34:53.064Z,21.4
2023-09-18T13:35:55.303Z,21.5
2023-09-18T13:36:57.232Z,21.5
2023-09-18T13:37:59.079Z,21.6
2023-09-18T13:39:01.121Z,21.6
2023-09-18T13:40:03.045Z,21.6
2023-09-18T13:41:05.043Z,21.5
2023-09-18T13:42:07.074Z,21.5
2023-09-18T13:43:09.047Z,21.4
2023-09-18T13:44:11.084Z,21.3
2023-09-18T13:45:13.040Z,21.3
2023-09-18T13:46:15.087Z,21.3
2023-09-18T13:47:17.064Z,21.4
2023-09-18T13:48:19.147Z,21.4
2023-09-18T13:49:21.315Z,21.4
2023-09-18T13:50:23.317Z,21.4
2023-09-18T13:51:26.899Z,21.3
2023-09-18T13:52:28.753Z,21.2
2023-09-18T13:53:30.805Z,21.1